N547LM PAFA-PANC
Flight info
| Callsign | N547LM |
|---|---|
| Flight time | 0h 57m |
| Altitude | 24000 |
| Route | PAFA PUYVO5 PUYVO KROTO5 PANC |
| Aircraft | BE20/L-VGDW/C |
Departure
| Time | 2026-04-20 22:17 |
|---|---|
| Airport | Fairbanks International Airport (PAFA) |
Arrival
| Time | 2026-04-20 23:14 |
|---|---|
| Airport | Ted Stevens Anchorage International Airport (PANC) |
| Time | Latitude | Longitude | Altitude | Speed | Heading |
|---|---|---|---|---|---|
| 2026-04-20 22:06 | 64.82522 | -147.85122 | 431 ft | 0 kts | 136° |
| 2026-04-20 22:12 | 64.82522 | -147.85121 | 431 ft | 1 kts | 136° |
| 2026-04-20 22:12 | 64.82509 | -147.85033 | 428 ft | 12 kts | 99° |
| 2026-04-20 22:12 | 64.82516 | -147.84776 | 425 ft | 19 kts | 46° |
| 2026-04-20 22:12 | 64.82628 | -147.84567 | 431 ft | 22 kts | 39° |
| 2026-04-20 22:13 | 64.82681 | -147.84454 | 428 ft | 3 kts | 55° |
| 2026-04-20 22:13 | 64.82686 | -147.84409 | 431 ft | 0 kts | 116° |
| 2026-04-20 22:13 | 64.82685 | -147.84407 | 431 ft | 0 kts | 116° |
| 2026-04-20 22:16 | 64.82685 | -147.84406 | 431 ft | 0 kts | 116° |
| 2026-04-20 22:16 | 64.82618 | -147.84296 | 429 ft | 27 kts | 182° |
| 2026-04-20 22:16 | 64.82397 | -147.84667 | 430 ft | 72 kts | 218° |
| 2026-04-20 22:17 | 64.81832 | -147.85702 | 563 ft | 124 kts | 218° |
| 2026-04-20 22:17 | 64.81076 | -147.87089 | 998 ft | 150 kts | 219° |
| 2026-04-20 22:17 | 64.80326 | -147.89008 | 1449 ft | 169 kts | 234° |
| 2026-04-20 22:17 | 64.79614 | -147.91335 | 1994 ft | 181 kts | 234° |
| 2026-04-20 22:18 | 64.78948 | -147.93892 | 2625 ft | 185 kts | 240° |
| 2026-04-20 22:18 | 64.78308 | -147.96544 | 3178 ft | 188 kts | 241° |
| 2026-04-20 22:18 | 64.77719 | -147.99251 | 3702 ft | 189 kts | 243° |
| 2026-04-20 22:18 | 64.77158 | -148.02032 | 4236 ft | 187 kts | 244° |
| 2026-04-20 22:19 | 64.76598 | -148.04776 | 4775 ft | 186 kts | 244° |
| 2026-04-20 22:19 | 64.76039 | -148.07472 | 5295 ft | 182 kts | 245° |
| 2026-04-20 22:19 | 64.75486 | -148.10148 | 5830 ft | 182 kts | 245° |
| 2026-04-20 22:19 | 64.74935 | -148.12817 | 6373 ft | 182 kts | 245° |
| 2026-04-20 22:20 | 64.74386 | -148.15463 | 6974 ft | 179 kts | 245° |
| 2026-04-20 22:20 | 64.73847 | -148.18059 | 7615 ft | 176 kts | 245° |
| 2026-04-20 22:20 | 64.73311 | -148.20640 | 8285 ft | 176 kts | 245° |
| 2026-04-20 22:20 | 64.72777 | -148.23207 | 8969 ft | 175 kts | 245° |
| 2026-04-20 22:21 | 64.72247 | -148.25755 | 9663 ft | 173 kts | 245° |
| 2026-04-20 22:21 | 64.71720 | -148.28285 | 10296 ft | 173 kts | 244° |
| 2026-04-20 22:21 | 64.71191 | -148.30825 | 10943 ft | 174 kts | 243° |
| 2026-04-20 22:21 | 64.70657 | -148.33364 | 11601 ft | 174 kts | 240° |
| 2026-04-20 22:22 | 64.69869 | -148.35430 | 12279 ft | 171 kts | 215° |
| 2026-04-20 22:22 | 64.68872 | -148.36944 | 12968 ft | 171 kts | 213° |
| 2026-04-20 22:22 | 64.67877 | -148.38506 | 13665 ft | 173 kts | 213° |
| 2026-04-20 22:22 | 64.66874 | -148.40075 | 14299 ft | 173 kts | 213° |
| 2026-04-20 22:23 | 64.65877 | -148.41612 | 14938 ft | 175 kts | 214° |
| 2026-04-20 22:23 | 64.64856 | -148.43185 | 15597 ft | 177 kts | 215° |
| 2026-04-20 22:23 | 64.63822 | -148.44781 | 16269 ft | 179 kts | 216° |
| 2026-04-20 22:23 | 64.62775 | -148.46398 | 16967 ft | 182 kts | 216° |
| 2026-04-20 22:24 | 64.61712 | -148.48035 | 17664 ft | 185 kts | 217° |
| 2026-04-20 22:24 | 64.60627 | -148.49703 | 18340 ft | 189 kts | 218° |
| 2026-04-20 22:24 | 64.59517 | -148.51409 | 18965 ft | 193 kts | 218° |
| 2026-04-20 22:24 | 64.58390 | -148.53138 | 19603 ft | 196 kts | 217° |
| 2026-04-20 22:25 | 64.57249 | -148.54884 | 20247 ft | 196 kts | 217° |
| 2026-04-20 22:25 | 64.56108 | -148.56626 | 20906 ft | 196 kts | 218° |
| 2026-04-20 22:25 | 64.54970 | -148.58370 | 21507 ft | 198 kts | 218° |
| 2026-04-20 22:25 | 64.53806 | -148.60152 | 22064 ft | 202 kts | 218° |
| 2026-04-20 22:26 | 64.52639 | -148.61931 | 22606 ft | 205 kts | 217° |
| 2026-04-20 22:26 | 64.51445 | -148.63752 | 23181 ft | 207 kts | 217° |
| 2026-04-20 22:26 | 64.50239 | -148.65589 | 23682 ft | 208 kts | 217° |
| 2026-04-20 22:27 | 64.47596 | -148.69625 | 23779 ft | 245 kts | 217° |
| 2026-04-20 22:27 | 64.46134 | -148.71835 | 23775 ft | 256 kts | 216° |
| 2026-04-20 22:27 | 64.44614 | -148.74130 | 23777 ft | 264 kts | 216° |
| 2026-04-20 22:27 | 64.43064 | -148.76477 | 23774 ft | 269 kts | 216° |
| 2026-04-20 22:28 | 64.41486 | -148.78865 | 23775 ft | 272 kts | 216° |
| 2026-04-20 22:28 | 64.39892 | -148.81269 | 23777 ft | 274 kts | 216° |
| 2026-04-20 22:28 | 64.38291 | -148.83680 | 23775 ft | 275 kts | 216° |
| 2026-04-20 22:28 | 64.36685 | -148.86098 | 23774 ft | 276 kts | 216° |
| 2026-04-20 22:29 | 64.35076 | -148.88519 | 23773 ft | 277 kts | 216° |
| 2026-04-20 22:29 | 64.33478 | -148.90917 | 23772 ft | 278 kts | 216° |
| 2026-04-20 22:29 | 64.31854 | -148.93350 | 23773 ft | 279 kts | 216° |
| 2026-04-20 22:29 | 64.30214 | -148.95809 | 23773 ft | 278 kts | 216° |
| 2026-04-20 22:30 | 64.28600 | -148.98271 | 23776 ft | 278 kts | 217° |
| 2026-04-20 22:30 | 64.27009 | -149.00704 | 23775 ft | 278 kts | 217° |
| 2026-04-20 22:30 | 64.25395 | -149.03146 | 23762 ft | 277 kts | 216° |
| 2026-04-20 22:30 | 64.23785 | -149.05571 | 23763 ft | 277 kts | 216° |
| 2026-04-20 22:31 | 64.22177 | -149.08000 | 23760 ft | 276 kts | 216° |
| 2026-04-20 22:31 | 64.20571 | -149.10427 | 23761 ft | 276 kts | 216° |
| 2026-04-20 22:31 | 64.18966 | -149.12844 | 23764 ft | 276 kts | 216° |
| 2026-04-20 22:31 | 64.17362 | -149.15254 | 23763 ft | 276 kts | 216° |
| 2026-04-20 22:32 | 64.15757 | -149.17665 | 23765 ft | 276 kts | 216° |
| 2026-04-20 22:32 | 64.14147 | -149.20080 | 23764 ft | 276 kts | 216° |
| 2026-04-20 22:32 | 64.12539 | -149.22489 | 23764 ft | 276 kts | 216° |
| 2026-04-20 22:32 | 64.10951 | -149.24861 | 23764 ft | 276 kts | 216° |
| 2026-04-20 22:33 | 64.09345 | -149.27261 | 23762 ft | 275 kts | 216° |
| 2026-04-20 22:33 | 64.07750 | -149.29639 | 23763 ft | 274 kts | 216° |
| 2026-04-20 22:33 | 64.06133 | -149.32002 | 23761 ft | 277 kts | 212° |
| 2026-04-20 22:33 | 64.04317 | -149.33518 | 23765 ft | 281 kts | 196° |
| 2026-04-20 22:34 | 64.02395 | -149.34368 | 23768 ft | 282 kts | 195° |
| 2026-04-20 22:34 | 64.00474 | -149.35271 | 23770 ft | 282 kts | 196° |
| 2026-04-20 22:34 | 63.98558 | -149.36206 | 23772 ft | 282 kts | 195° |
| 2026-04-20 22:34 | 63.96631 | -149.37110 | 23758 ft | 283 kts | 195° |
| 2026-04-20 22:35 | 63.94725 | -149.37983 | 23759 ft | 283 kts | 195° |
| 2026-04-20 22:35 | 63.92798 | -149.38878 | 23759 ft | 283 kts | 195° |
| 2026-04-20 22:35 | 63.90869 | -149.39785 | 23758 ft | 283 kts | 195° |
| 2026-04-20 22:35 | 63.88941 | -149.40683 | 23759 ft | 283 kts | 195° |
| 2026-04-20 22:36 | 63.87012 | -149.41574 | 23756 ft | 283 kts | 195° |
| 2026-04-20 22:36 | 63.85084 | -149.42467 | 23760 ft | 283 kts | 195° |
| 2026-04-20 22:36 | 63.83154 | -149.43364 | 23757 ft | 283 kts | 195° |
| 2026-04-20 22:36 | 63.81224 | -149.44256 | 23760 ft | 283 kts | 195° |
| 2026-04-20 22:37 | 63.79290 | -149.45147 | 23759 ft | 284 kts | 195° |
| 2026-04-20 22:37 | 63.77357 | -149.46039 | 23763 ft | 283 kts | 195° |
| 2026-04-20 22:37 | 63.75424 | -149.46929 | 23761 ft | 283 kts | 195° |
| 2026-04-20 22:37 | 63.73493 | -149.47815 | 23759 ft | 283 kts | 195° |
| 2026-04-20 22:38 | 63.71563 | -149.48702 | 23769 ft | 283 kts | 195° |
| 2026-04-20 22:38 | 63.69635 | -149.49587 | 23767 ft | 283 kts | 195° |
| 2026-04-20 22:38 | 63.67729 | -149.50459 | 23767 ft | 283 kts | 195° |
| 2026-04-20 22:38 | 63.65797 | -149.51342 | 23757 ft | 283 kts | 195° |
| 2026-04-20 22:39 | 63.63865 | -149.52225 | 23771 ft | 283 kts | 195° |
| 2026-04-20 22:39 | 63.61930 | -149.53107 | 23768 ft | 284 kts | 195° |
| 2026-04-20 22:39 | 63.59999 | -149.53986 | 23762 ft | 284 kts | 195° |
| 2026-04-20 22:39 | 63.58065 | -149.54864 | 23770 ft | 284 kts | 195° |
| 2026-04-20 22:40 | 63.56132 | -149.55740 | 23765 ft | 283 kts | 195° |
| 2026-04-20 22:40 | 63.54199 | -149.56617 | 23768 ft | 283 kts | 195° |
| 2026-04-20 22:40 | 63.52265 | -149.57492 | 23773 ft | 283 kts | 195° |
| 2026-04-20 22:40 | 63.50331 | -149.58365 | 23766 ft | 283 kts | 195° |
| 2026-04-20 22:41 | 63.48401 | -149.59235 | 23769 ft | 283 kts | 195° |
| 2026-04-20 22:41 | 63.46470 | -149.60107 | 23770 ft | 283 kts | 195° |
| 2026-04-20 22:41 | 63.44540 | -149.60976 | 23767 ft | 283 kts | 195° |
| 2026-04-20 22:41 | 63.42608 | -149.61842 | 23770 ft | 283 kts | 195° |
| 2026-04-20 22:42 | 63.40705 | -149.62699 | 23776 ft | 283 kts | 195° |
| 2026-04-20 22:42 | 63.38776 | -149.63564 | 23779 ft | 283 kts | 195° |
| 2026-04-20 22:42 | 63.36843 | -149.64428 | 23786 ft | 284 kts | 195° |
| 2026-04-20 22:42 | 63.34900 | -149.65292 | 23786 ft | 286 kts | 195° |
| 2026-04-20 22:43 | 63.32950 | -149.66163 | 23788 ft | 286 kts | 195° |
| 2026-04-20 22:43 | 63.30996 | -149.67035 | 23789 ft | 286 kts | 195° |
| 2026-04-20 22:43 | 63.29044 | -149.67903 | 23790 ft | 287 kts | 195° |
| 2026-04-20 22:43 | 63.27085 | -149.68773 | 23791 ft | 287 kts | 195° |
| 2026-04-20 22:44 | 63.25129 | -149.69638 | 23792 ft | 287 kts | 195° |
| 2026-04-20 22:44 | 63.23170 | -149.70509 | 23793 ft | 287 kts | 195° |
| 2026-04-20 22:44 | 63.21214 | -149.71376 | 23794 ft | 287 kts | 195° |
| 2026-04-20 22:44 | 63.19268 | -149.72235 | 23794 ft | 287 kts | 195° |
| 2026-04-20 22:45 | 63.17316 | -149.73096 | 23795 ft | 287 kts | 195° |
| 2026-04-20 22:45 | 63.15383 | -149.73949 | 23793 ft | 287 kts | 195° |
| 2026-04-20 22:45 | 63.13427 | -149.74809 | 23795 ft | 287 kts | 195° |
| 2026-04-20 22:45 | 63.11472 | -149.75669 | 23795 ft | 287 kts | 194° |
| 2026-04-20 22:46 | 63.09512 | -149.76528 | 23797 ft | 287 kts | 195° |
| 2026-04-20 22:46 | 63.07552 | -149.77387 | 23798 ft | 287 kts | 195° |
| 2026-04-20 22:46 | 63.05592 | -149.78246 | 23797 ft | 287 kts | 195° |
| 2026-04-20 22:46 | 63.03632 | -149.79102 | 23798 ft | 287 kts | 195° |
| 2026-04-20 22:47 | 63.01672 | -149.79958 | 23799 ft | 287 kts | 196° |
| 2026-04-20 22:47 | 62.99716 | -149.80809 | 23804 ft | 286 kts | 194° |
| 2026-04-20 22:47 | 62.97763 | -149.81658 | 23804 ft | 286 kts | 195° |
| 2026-04-20 22:47 | 62.95839 | -149.82497 | 23803 ft | 286 kts | 195° |
| 2026-04-20 22:48 | 62.93863 | -149.83356 | 23803 ft | 286 kts | 194° |
| 2026-04-20 22:48 | 62.91939 | -149.84189 | 23803 ft | 285 kts | 195° |
| 2026-04-20 22:48 | 62.89991 | -149.85032 | 23803 ft | 286 kts | 195° |
| 2026-04-20 22:48 | 62.88040 | -149.85876 | 23752 ft | 287 kts | 194° |
| 2026-04-20 22:49 | 62.86023 | -149.86754 | 23247 ft | 301 kts | 194° |
| 2026-04-20 22:49 | 62.83962 | -149.87643 | 22682 ft | 303 kts | 194° |
| 2026-04-20 22:49 | 62.81889 | -149.88527 | 22123 ft | 300 kts | 195° |
| 2026-04-20 22:49 | 62.79884 | -149.89378 | 21566 ft | 289 kts | 194° |
| 2026-04-20 22:50 | 62.77917 | -149.90226 | 21015 ft | 288 kts | 194° |
| 2026-04-20 22:50 | 62.75940 | -149.91086 | 20356 ft | 291 kts | 195° |
| 2026-04-20 22:50 | 62.73950 | -149.91940 | 19712 ft | 293 kts | 195° |
| 2026-04-20 22:50 | 62.71952 | -149.92788 | 19077 ft | 292 kts | 195° |
| 2026-04-20 22:51 | 62.69985 | -149.93626 | 18458 ft | 291 kts | 194° |
| 2026-04-20 22:51 | 62.67993 | -149.94479 | 17849 ft | 294 kts | 194° |
| 2026-04-20 22:51 | 62.66017 | -149.95318 | 17821 ft | 285 kts | 194° |
| 2026-04-20 22:51 | 62.64094 | -149.96130 | 17817 ft | 279 kts | 194° |
| 2026-04-20 22:52 | 62.62201 | -149.96938 | 17812 ft | 276 kts | 194° |
| 2026-04-20 22:52 | 62.60324 | -149.97736 | 17808 ft | 274 kts | 194° |
| 2026-04-20 22:52 | 62.58452 | -149.98530 | 17805 ft | 274 kts | 194° |
| 2026-04-20 22:52 | 62.56587 | -149.99315 | 17804 ft | 273 kts | 194° |
| 2026-04-20 22:53 | 62.54726 | -150.00105 | 17804 ft | 273 kts | 194° |
| 2026-04-20 22:53 | 62.52886 | -150.00881 | 17805 ft | 273 kts | 194° |
| 2026-04-20 22:53 | 62.51026 | -150.01662 | 17803 ft | 271 kts | 195° |
| 2026-04-20 22:53 | 62.49179 | -150.02432 | 17801 ft | 270 kts | 195° |
| 2026-04-20 22:54 | 62.47331 | -150.03220 | 17802 ft | 271 kts | 195° |
| 2026-04-20 22:54 | 62.45482 | -150.04000 | 17801 ft | 271 kts | 195° |
| 2026-04-20 22:54 | 62.43634 | -150.04772 | 17800 ft | 271 kts | 195° |
| 2026-04-20 22:54 | 62.41780 | -150.05546 | 17799 ft | 271 kts | 195° |
| 2026-04-20 22:55 | 62.39933 | -150.06320 | 17799 ft | 271 kts | 195° |
| 2026-04-20 22:55 | 62.38083 | -150.07094 | 17793 ft | 270 kts | 195° |
| 2026-04-20 22:55 | 62.36264 | -150.07851 | 17801 ft | 270 kts | 195° |
| 2026-04-20 22:55 | 62.34420 | -150.08620 | 17801 ft | 270 kts | 195° |
| 2026-04-20 22:56 | 62.32583 | -150.09384 | 17801 ft | 269 kts | 195° |
| 2026-04-20 22:56 | 62.30739 | -150.10151 | 17801 ft | 269 kts | 195° |
| 2026-04-20 22:56 | 62.28898 | -150.10831 | 17800 ft | 269 kts | 192° |
| 2026-04-20 22:56 | 62.27044 | -150.11410 | 17799 ft | 269 kts | 193° |
| 2026-04-20 22:57 | 62.25191 | -150.12047 | 17800 ft | 269 kts | 193° |
| 2026-04-20 22:57 | 62.23337 | -150.12676 | 17664 ft | 274 kts | 193° |
| 2026-04-20 22:57 | 62.21421 | -150.13301 | 17244 ft | 282 kts | 193° |
| 2026-04-20 22:57 | 62.19469 | -150.13927 | 16833 ft | 286 kts | 192° |
| 2026-04-20 22:58 | 62.17521 | -150.14560 | 16428 ft | 287 kts | 192° |
| 2026-04-20 22:58 | 62.15546 | -150.15209 | 16024 ft | 287 kts | 193° |
| 2026-04-20 22:58 | 62.13573 | -150.15853 | 15625 ft | 287 kts | 193° |
| 2026-04-20 22:58 | 62.11603 | -150.16493 | 15226 ft | 286 kts | 193° |
| 2026-04-20 22:59 | 62.09634 | -150.17132 | 14833 ft | 286 kts | 193° |
| 2026-04-20 22:59 | 62.07673 | -150.17770 | 14445 ft | 285 kts | 193° |
| 2026-04-20 22:59 | 62.05714 | -150.18405 | 14063 ft | 284 kts | 193° |
| 2026-04-20 22:59 | 62.03760 | -150.19039 | 13685 ft | 284 kts | 193° |
| 2026-04-20 23:00 | 62.01828 | -150.19665 | 13280 ft | 282 kts | 193° |
| 2026-04-20 23:00 | 61.99894 | -150.20286 | 12857 ft | 280 kts | 193° |
| 2026-04-20 23:00 | 61.97975 | -150.20903 | 12443 ft | 277 kts | 193° |
| 2026-04-20 23:00 | 61.96078 | -150.21521 | 12033 ft | 274 kts | 192° |
| 2026-04-20 23:01 | 61.94199 | -150.22125 | 11629 ft | 272 kts | 192° |
| 2026-04-20 23:01 | 61.92364 | -150.22710 | 11234 ft | 269 kts | 192° |
| 2026-04-20 23:01 | 61.90528 | -150.23298 | 10838 ft | 266 kts | 192° |
| 2026-04-20 23:01 | 61.88706 | -150.23885 | 10449 ft | 263 kts | 192° |
| 2026-04-20 23:02 | 61.86920 | -150.24461 | 10065 ft | 261 kts | 191° |
| 2026-04-20 23:02 | 61.85142 | -150.25028 | 9834 ft | 254 kts | 191° |
| 2026-04-20 23:02 | 61.83431 | -150.25568 | 9829 ft | 245 kts | 191° |
| 2026-04-20 23:02 | 61.81764 | -150.26100 | 9823 ft | 240 kts | 191° |
| 2026-04-20 23:03 | 61.80117 | -150.26627 | 9820 ft | 238 kts | 191° |
| 2026-04-20 23:03 | 61.78484 | -150.27149 | 9818 ft | 237 kts | 191° |
| 2026-04-20 23:03 | 61.76854 | -150.27669 | 9818 ft | 237 kts | 191° |
| 2026-04-20 23:03 | 61.75227 | -150.28185 | 9823 ft | 236 kts | 191° |
| 2026-04-20 23:04 | 61.73592 | -150.28702 | 9820 ft | 239 kts | 191° |
| 2026-04-20 23:04 | 61.71950 | -150.29221 | 9821 ft | 239 kts | 191° |
| 2026-04-20 23:04 | 61.70319 | -150.29697 | 9829 ft | 240 kts | 185° |
| 2026-04-20 23:04 | 61.68648 | -150.29242 | 9827 ft | 245 kts | 167° |
| 2026-04-20 23:05 | 61.66977 | -150.28241 | 9346 ft | 260 kts | 167° |
| 2026-04-20 23:05 | 61.65183 | -150.27225 | 8530 ft | 272 kts | 168° |
| 2026-04-20 23:05 | 61.63353 | -150.26206 | 7738 ft | 268 kts | 167° |
| 2026-04-20 23:05 | 61.61597 | -150.25193 | 6957 ft | 257 kts | 167° |
| 2026-04-20 23:06 | 61.59901 | -150.24213 | 6189 ft | 249 kts | 167° |
| 2026-04-20 23:06 | 61.58244 | -150.23276 | 5380 ft | 244 kts | 167° |
| 2026-04-20 23:06 | 61.56625 | -150.22362 | 4835 ft | 233 kts | 166° |
| 2026-04-20 23:06 | 61.55140 | -150.21507 | 4818 ft | 211 kts | 167° |
| 2026-04-20 23:07 | 61.53786 | -150.20735 | 4826 ft | 199 kts | 167° |
| 2026-04-20 23:07 | 61.52472 | -150.19994 | 4822 ft | 193 kts | 167° |
| 2026-04-20 23:07 | 61.51149 | -150.19250 | 4824 ft | 206 kts | 167° |
| 2026-04-20 23:07 | 61.49718 | -150.18445 | 4833 ft | 218 kts | 167° |
| 2026-04-20 23:08 | 61.48234 | -150.17587 | 4811 ft | 224 kts | 166° |
| 2026-04-20 23:08 | 61.46677 | -150.16672 | 4294 ft | 238 kts | 166° |
| 2026-04-20 23:08 | 61.45070 | -150.15729 | 3770 ft | 242 kts | 166° |
| 2026-04-20 23:08 | 61.43447 | -150.14783 | 3260 ft | 243 kts | 166° |
| 2026-04-20 23:09 | 61.41825 | -150.13841 | 2838 ft | 239 kts | 165° |
| 2026-04-20 23:09 | 61.40275 | -150.12937 | 2831 ft | 226 kts | 166° |
| 2026-04-20 23:09 | 61.38787 | -150.12072 | 2829 ft | 220 kts | 166° |
| 2026-04-20 23:09 | 61.37314 | -150.11233 | 2825 ft | 219 kts | 166° |
| 2026-04-20 23:10 | 61.35852 | -150.10415 | 2830 ft | 215 kts | 167° |
| 2026-04-20 23:10 | 61.34414 | -150.09713 | 2826 ft | 211 kts | 170° |
| 2026-04-20 23:10 | 61.33004 | -150.09095 | 2825 ft | 208 kts | 171° |
| 2026-04-20 23:10 | 61.31618 | -150.08337 | 2867 ft | 206 kts | 164° |
| 2026-04-20 23:11 | 61.30272 | -150.07373 | 2598 ft | 199 kts | 163° |
| 2026-04-20 23:11 | 61.29016 | -150.06446 | 2457 ft | 185 kts | 164° |
| 2026-04-20 23:11 | 61.27813 | -150.05750 | 2147 ft | 178 kts | 168° |
| 2026-04-20 23:11 | 61.26637 | -150.05202 | 1885 ft | 165 kts | 167° |
| 2026-04-20 23:12 | 61.25612 | -150.04579 | 1536 ft | 149 kts | 167° |
| 2026-04-20 23:12 | 61.24626 | -150.04112 | 1355 ft | 141 kts | 166° |
| 2026-04-20 23:12 | 61.23729 | -150.03530 | 1295 ft | 118 kts | 163° |
| 2026-04-20 23:12 | 61.23027 | -150.03132 | 970 ft | 95 kts | 172° |
| 2026-04-20 23:13 | 61.22373 | -150.02820 | 796 ft | 104 kts | 163° |
| 2026-04-20 23:13 | 61.21652 | -150.02385 | 661 ft | 115 kts | 165° |
| 2026-04-20 23:13 | 61.20855 | -150.01964 | 391 ft | 115 kts | 163° |
| 2026-04-20 23:13 | 61.20119 | -150.01542 | 211 ft | 102 kts | 163° |
| 2026-04-20 23:14 | 61.19492 | -150.01188 | 119 ft | 84 kts | 165° |
| 2026-04-20 23:14 | 61.19004 | -150.00916 | 115 ft | 58 kts | 165° |
| 2026-04-20 23:14 | 61.18692 | -150.00743 | 119 ft | 39 kts | 165° |
| 2026-04-20 23:14 | 61.18438 | -150.00600 | 114 ft | 40 kts | 165° |
| 2026-04-20 23:15 | 61.18141 | -150.00436 | 114 ft | 47 kts | 165° |
| 2026-04-20 23:15 | 61.17882 | -150.00207 | 115 ft | 35 kts | 140° |
| 2026-04-20 23:15 | 61.17782 | -150.00004 | 120 ft | 0 kts | 134° |
| 2026-04-20 23:16 | 61.17721 | -149.99880 | 116 ft | 21 kts | 139° |
| 2026-04-20 23:16 | 61.17541 | -149.99744 | 116 ft | 27 kts | 165° |
| 2026-04-20 23:17 | 61.17416 | -149.99676 | 115 ft | 19 kts | 165° |
| 2026-04-20 23:17 | 61.17262 | -149.99590 | 114 ft | 27 kts | 165° |
| 2026-04-20 23:17 | 61.17155 | -149.99532 | 125 ft | 11 kts | 165° |
| 2026-04-20 23:17 | 61.17093 | -149.99496 | 116 ft | 8 kts | 164° |
| 2026-04-20 23:18 | 61.17087 | -149.99492 | 114 ft | 0 kts | 165° |
| 2026-04-20 23:19 | 61.17086 | -149.99492 | 114 ft | 2 kts | 165° |
| 2026-04-20 23:19 | 61.17024 | -149.99457 | 115 ft | 17 kts | 165° |
| 2026-04-20 23:20 | 61.16872 | -149.99372 | 115 ft | 28 kts | 164° |
| 2026-04-20 23:20 | 61.16748 | -149.99300 | 116 ft | 24 kts | 165° |
| 2026-04-20 23:20 | 61.16638 | -149.99240 | 114 ft | 22 kts | 165° |
| 2026-04-20 23:20 | 61.16432 | -149.99173 | 116 ft | 21 kts | 171° |
| 2026-04-20 23:21 | 61.16336 | -149.99128 | 115 ft | 10 kts | 148° |
| 2026-04-20 23:21 | 61.16337 | -149.98978 | 115 ft | 8 kts | 9° |
| 2026-04-20 23:21 | 61.16349 | -149.98997 | 114 ft | 0 kts | 241° |